sensor_id;sensor_type;location;lat;lon;timestamp;pressure;altitude;pressure_sealevel;temperature;humidity
15568;BME280;7885;42.596;23.044;2023-03-21T00:00:31;92788.50;;;12.93;54.03
15568;BME280;7885;42.596;23.044;2023-03-21T00:02:58;92788.56;;;12.89;54.07
15568;BME280;7885;42.596;23.044;2023-03-21T00:05:25;92785.03;;;12.89;54.08
15568;BME280;7885;42.596;23.044;2023-03-21T00:07:51;92793.34;;;12.82;54.72
15568;BME280;7885;42.596;23.044;2023-03-21T00:10:18;92730.41;;;12.32;54.22
15568;BME280;7885;42.596;23.044;2023-03-21T00:12:45;92792.06;;;12.59;54.09
15568;BME280;7885;42.596;23.044;2023-03-21T00:15:15;92784.34;;;12.54;54.57
15568;BME280;7885;42.596;23.044;2023-03-21T00:17:44;92780.91;;;12.47;54.94
15568;BME280;7885;42.596;23.044;2023-03-21T00:20:10;92783.00;;;12.36;54.01
15568;BME280;7885;42.596;23.044;2023-03-21T00:22:40;92783.91;;;12.26;53.85
15568;BME280;7885;42.596;23.044;2023-03-21T00:25:07;92791.03;;;12.16;54.07
15568;BME280;7885;42.596;23.044;2023-03-21T00:27:35;92785.56;;;12.16;54.34
15568;BME280;7885;42.596;23.044;2023-03-21T00:30:03;92789.56;;;12.08;55.17
15568;BME280;7885;42.596;23.044;2023-03-21T00:32:30;92742.44;;;11.66;55.60
15568;BME280;7885;42.596;23.044;2023-03-21T00:34:58;92785.06;;;11.91;55.65
15568;BME280;7885;42.596;23.044;2023-03-21T00:37:25;92783.56;;;11.83;56.12
15568;BME280;7885;42.596;23.044;2023-03-21T00:39:52;92785.59;;;11.79;56.60
15568;BME280;7885;42.596;23.044;2023-03-21T00:42:19;92789.09;;;11.76;56.49
15568;BME280;7885;42.596;23.044;2023-03-21T00:44:46;92713.25;;;11.26;56.62
15568;BME280;7885;42.596;23.044;2023-03-21T00:47:13;92752.78;;;11.41;57.05
15568;BME280;7885;42.596;23.044;2023-03-21T00:49:39;92783.38;;;11.59;56.70
15568;BME280;7885;42.596;23.044;2023-03-21T00:52:08;92783.09;;;11.50;56.58
15568;BME280;7885;42.596;23.044;2023-03-21T00:54:36;92779.25;;;11.44;57.11
15568;BME280;7885;42.596;23.044;2023-03-21T00:57:03;92780.53;;;11.29;57.58
15568;BME280;7885;42.596;23.044;2023-03-21T00:59:30;92772.06;;;11.20;58.06
15568;BME280;7885;42.596;23.044;2023-03-21T01:01:57;92770.25;;;11.03;58.27
15568;BME280;7885;42.596;23.044;2023-03-21T01:04:25;92763.31;;;10.95;58.70
15568;BME280;7885;42.596;23.044;2023-03-21T01:06:54;92764.84;;;10.96;58.59
15568;BME280;7885;42.596;23.044;2023-03-21T01:09:23;92728.50;;;10.69;58.63
15568;BME280;7885;42.596;23.044;2023-03-21T01:11:50;92752.56;;;10.74;58.93
15568;BME280;7885;42.596;23.044;2023-03-21T01:14:20;92750.66;;;10.67;59.55
15568;BME280;7885;42.596;23.044;2023-03-21T01:16:48;92759.56;;;10.75;60.11
15568;BME280;7885;42.596;23.044;2023-03-21T01:19:16;92710.00;;;10.42;60.04
15568;BME280;7885;42.596;23.044;2023-03-21T01:21:43;92753.34;;;10.71;59.90
15568;BME280;7885;42.596;23.044;2023-03-21T01:24:10;92758.34;;;10.79;59.96
15568;BME280;7885;42.596;23.044;2023-03-21T01:26:38;92770.41;;;10.82;59.63
15568;BME280;7885;42.596;23.044;2023-03-21T01:29:05;92766.47;;;10.86;59.81
15568;BME280;7885;42.596;23.044;2023-03-21T01:31:32;92709.06;;;10.67;59.53
15568;BME280;7885;42.596;23.044;2023-03-21T01:33:58;92750.06;;;10.93;59.52
15568;BME280;7885;42.596;23.044;2023-03-21T01:36:25;92757.78;;;11.05;59.34
15568;BME280;7885;42.596;23.044;2023-03-21T01:38:52;92756.16;;;11.11;59.61
15568;BME280;7885;42.596;23.044;2023-03-21T01:41:24;92755.03;;;11.09;59.69
15568;BME280;7885;42.596;23.044;2023-03-21T01:43:52;92759.34;;;11.06;59.57
15568;BME280;7885;42.596;23.044;2023-03-21T01:46:32;92721.44;;;10.75;59.85
15568;BME280;7885;42.596;23.044;2023-03-21T01:49:02;92751.28;;;10.89;60.24
15568;BME280;7885;42.596;23.044;2023-03-21T01:51:32;92732.38;;;10.68;60.67
15568;BME280;7885;42.596;23.044;2023-03-21T01:54:00;92747.88;;;10.78;60.62
15568;BME280;7885;42.596;23.044;2023-03-21T01:56:30;92733.19;;;10.64;60.94
15568;BME280;7885;42.596;23.044;2023-03-21T01:59:04;92716.19;;;10.46;61.39
15568;BME280;7885;42.596;23.044;2023-03-21T02:01:32;92701.06;;;10.38;61.02
15568;BME280;7885;42.596;23.044;2023-03-21T02:04:03;92729.38;;;10.51;61.11
15568;BME280;7885;42.596;23.044;2023-03-21T02:06:40;92739.44;;;10.58;61.25
15568;BME280;7885;42.596;23.044;2023-03-21T02:09:12;92718.22;;;10.28;61.83
15568;BME280;7885;42.596;23.044;2023-03-21T02:11:40;92740.75;;;10.32;62.50
15568;BME280;7885;42.596;23.044;2023-03-21T02:14:14;92750.47;;;10.30;62.01
15568;BME280;7885;42.596;23.044;2023-03-21T02:16:50;92717.91;;;10.12;62.98
15568;BME280;7885;42.596;23.044;2023-03-21T02:22:25;92741.16;;;10.34;62.11
15568;BME280;7885;42.596;23.044;2023-03-21T02:28:12;92746.25;;;10.18;63.08
15568;BME280;7885;42.596;23.044;2023-03-21T02:31:06;92748.59;;;10.16;63.69
15568;BME280;7885;42.596;23.044;2023-03-21T02:34:25;92746.25;;;10.18;64.10
15568;BME280;7885;42.596;23.044;2023-03-21T02:37:03;92733.47;;;10.01;62.77
15568;BME280;7885;42.596;23.044;2023-03-21T02:39:41;92749.78;;;10.08;63.49
15568;BME280;7885;42.596;23.044;2023-03-21T02:42:15;92730.41;;;9.99;64.40
15568;BME280;7885;42.596;23.044;2023-03-21T02:44:48;92743.53;;;10.11;64.45
15568;BME280;7885;42.596;23.044;2023-03-21T02:47:24;92749.78;;;10.15;64.24
15568;BME280;7885;42.596;23.044;2023-03-21T02:49:55;92756.72;;;10.23;64.58
15568;BME280;7885;42.596;23.044;2023-03-21T02:52:27;92766.84;;;10.12;63.26
15568;BME280;7885;42.596;23.044;2023-03-21T02:54:56;92739.75;;;9.91;65.02
15568;BME280;7885;42.596;23.044;2023-03-21T02:57:24;92745.59;;;9.86;65.91
15568;BME280;7885;42.596;23.044;2023-03-21T02:59:51;92759.13;;;9.96;66.19
15568;BME280;7885;42.596;23.044;2023-03-21T03:02:21;92753.69;;;9.96;66.33
15568;BME280;7885;42.596;23.044;2023-03-21T03:04:48;92741.28;;;9.92;66.59
15568;BME280;7885;42.596;23.044;2023-03-21T03:07:23;92750.22;;;9.96;66.33
15568;BME280;7885;42.596;23.044;2023-03-21T03:10:10;92751.03;;;9.89;65.73
15568;BME280;7885;42.596;23.044;2023-03-21T03:12:46;92756.06;;;9.80;65.26
15568;BME280;7885;42.596;23.044;2023-03-21T03:15:21;92623.59;;;8.94;65.63
15568;BME280;7885;42.596;23.044;2023-03-21T03:17:59;92690.63;;;9.36;65.92
15568;BME280;7885;42.596;23.044;2023-03-21T03:20:34;92753.81;;;9.64;65.87
15568;BME280;7885;42.596;23.044;2023-03-21T03:23:10;92717.78;;;9.29;66.13
15568;BME280;7885;42.596;23.044;2023-03-21T03:25:43;92691.84;;;9.03;67.08
15568;BME280;7885;42.596;23.044;2023-03-21T03:28:15;92696.50;;;8.92;67.79
15568;BME280;7885;42.596;23.044;2023-03-21T03:30:44;92750.00;;;9.23;68.09
15568;BME280;7885;42.596;23.044;2023-03-21T03:33:12;92755.78;;;9.32;68.41
15568;BME280;7885;42.596;23.044;2023-03-21T03:35:41;92755.41;;;9.37;68.47
15568;BME280;7885;42.596;23.044;2023-03-21T03:38:09;92723.63;;;9.13;66.93
15568;BME280;7885;42.596;23.044;2023-03-21T03:40:41;92755.44;;;9.23;67.45
15568;BME280;7885;42.596;23.044;2023-03-21T03:43:12;92736.44;;;8.95;68.76
15568;BME280;7885;42.596;23.044;2023-03-21T03:45:43;92740.72;;;8.89;69.68
15568;BME280;7885;42.596;23.044;2023-03-21T03:48:15;92726.34;;;8.63;70.73
15568;BME280;7885;42.596;23.044;2023-03-21T03:50:47;92734.47;;;8.63;70.42
15568;BME280;7885;42.596;23.044;2023-03-21T03:53:19;92710.06;;;8.49;70.60
15568;BME280;7885;42.596;23.044;2023-03-21T03:55:50;92738.75;;;8.72;70.35
15568;BME280;7885;42.596;23.044;2023-03-21T03:58:18;92741.06;;;8.73;70.00
15568;BME280;7885;42.596;23.044;2023-03-21T04:00:45;92747.66;;;8.76;69.40
15568;BME280;7885;42.596;23.044;2023-03-21T04:03:13;92736.41;;;8.70;68.95
15568;BME280;7885;42.596;23.044;2023-03-21T04:05:40;92730.63;;;8.72;68.93
15568;BME280;7885;42.596;23.044;2023-03-21T04:08:10;92727.13;;;8.68;68.60
15568;BME280;7885;42.596;23.044;2023-03-21T04:10:37;92721.69;;;8.68;69.35
15568;BME280;7885;42.596;23.044;2023-03-21T04:13:05;92718.56;;;8.58;70.58
15568;BME280;7885;42.596;23.044;2023-03-21T04:15:32;92720.53;;;8.47;71.41
15568;BME280;7885;42.596;23.044;2023-03-21T04:17:59;92733.66;;;8.42;72.02
15568;BME280;7885;42.596;23.044;2023-03-21T04:20:26;92730.19;;;8.41;71.84
15568;BME280;7885;42.596;23.044;2023-03-21T04:22:52;92717.41;;;8.45;71.63
15568;BME280;7885;42.596;23.044;2023-03-21T04:25:20;92719.34;;;8.48;71.09
15568;BME280;7885;42.596;23.044;2023-03-21T04:27:47;92727.47;;;8.52;71.18
15568;BME280;7885;42.596;23.044;2023-03-21T04:30:16;92724.78;;;8.62;71.16
15568;BME280;7885;42.596;23.044;2023-03-21T04:32:44;92732.16;;;8.76;70.41
15568;BME280;7885;42.596;23.044;2023-03-21T04:35:18;92651.94;;;8.36;69.96
15568;BME280;7885;42.596;23.044;2023-03-21T04:37:45;92730.22;;;8.87;68.69
15568;BME280;7885;42.596;23.044;2023-03-21T04:40:12;92739.91;;;8.81;68.68
15568;BME280;7885;42.596;23.044;2023-03-21T04:42:42;92741.84;;;8.67;69.43
15568;BME280;7885;42.596;23.044;2023-03-21T04:45:10;92731.38;;;8.54;69.38
15568;BME280;7885;42.596;23.044;2023-03-21T04:47:38;92635.97;;;7.89;69.86
15568;BME280;7885;42.596;23.044;2023-03-21T04:50:05;92733.69;;;8.52;71.19
15568;BME280;7885;42.596;23.044;2023-03-21T04:52:32;92729.44;;;8.48;72.07
15568;BME280;7885;42.596;23.044;2023-03-21T04:54:59;92732.13;;;8.58;71.84
15568;BME280;7885;42.596;23.044;2023-03-21T04:57:26;92743.78;;;8.62;71.13
15568;BME280;7885;42.596;23.044;2023-03-21T04:59:53;92724.41;;;8.53;71.28
15568;BME280;7885;42.596;23.044;2023-03-21T05:02:19;92746.13;;;8.68;71.91
15568;BME280;7885;42.596;23.044;2023-03-21T05:04:47;92719.75;;;8.50;72.00
15568;BME280;7885;42.596;23.044;2023-03-21T05:07:14;92742.25;;;8.72;71.96
15568;BME280;7885;42.596;23.044;2023-03-21T05:09:41;92680.22;;;8.35;71.27
15568;BME280;7885;42.596;23.044;2023-03-21T05:12:07;92745.34;;;8.92;71.45
15568;BME280;7885;42.596;23.044;2023-03-21T05:14:34;92699.59;;;8.62;70.93
15568;BME280;7885;42.596;23.044;2023-03-21T05:17:01;92742.25;;;8.58;71.94
15568;BME280;7885;42.596;23.044;2023-03-21T05:19:30;92744.53;;;8.56;72.05
15568;BME280;7885;42.596;23.044;2023-03-21T05:22:02;92729.81;;;8.46;71.76
15568;BME280;7885;42.596;23.044;2023-03-21T05:24:30;92759.28;;;8.83;71.52
15568;BME280;7885;42.596;23.044;2023-03-21T05:26:58;92755.81;;;8.90;71.18
15568;BME280;7885;42.596;23.044;2023-03-21T05:29:29;92741.50;;;8.86;70.73
15568;BME280;7885;42.596;23.044;2023-03-21T05:31:57;92753.09;;;8.97;70.71
15568;BME280;7885;42.596;23.044;2023-03-21T05:34:24;92734.50;;;8.92;70.97
15568;BME280;7885;42.596;23.044;2023-03-21T05:36:51;92705.81;;;8.84;71.64
15568;BME280;7885;42.596;23.044;2023-03-21T05:39:20;92743.38;;;9.21;71.92
15568;BME280;7885;42.596;23.044;2023-03-21T05:41:46;92750.78;;;9.34;71.35
15568;BME280;7885;42.596;23.044;2023-03-21T05:44:13;92739.50;;;9.39;70.52
15568;BME280;7885;42.596;23.044;2023-03-21T05:46:40;92720.47;;;9.39;70.91
15568;BME280;7885;42.596;23.044;2023-03-21T05:49:09;92741.38;;;9.71;69.48
15568;BME280;7885;42.596;23.044;2023-03-21T05:51:35;92697.19;;;9.45;70.10
15568;BME280;7885;42.596;23.044;2023-03-21T05:54:02;92718.84;;;9.67;70.35
15568;BME280;7885;42.596;23.044;2023-03-21T05:56:30;92744.78;;;9.92;69.99
15568;BME280;7885;42.596;23.044;2023-03-21T05:58:57;92726.94;;;9.88;68.72
15568;BME280;7885;42.596;23.044;2023-03-21T06:01:24;92737.72;;;10.16;67.66
15568;BME280;7885;42.596;23.044;2023-03-21T06:03:50;92733.03;;;10.27;67.47
15568;BME280;7885;42.596;23.044;2023-03-21T06:06:17;92737.66;;;10.34;67.23
15568;BME280;7885;42.596;23.044;2023-03-21T06:08:44;92735.22;;;10.46;67.01
15568;BME280;7885;42.596;23.044;2023-03-21T06:11:18;92732.47;;;10.53;66.32
15568;BME280;7885;42.596;23.044;2023-03-21T06:13:47;92738.63;;;10.64;65.71
15568;BME280;7885;42.596;23.044;2023-03-21T06:16:14;92735.44;;;10.73;65.75
15568;BME280;7885;42.596;23.044;2023-03-21T06:18:40;92734.53;;;10.90;65.44
15568;BME280;7885;42.596;23.044;2023-03-21T06:21:07;92689.59;;;10.72;65.00
15568;BME280;7885;42.596;23.044;2023-03-21T06:23:34;92738.97;;;11.22;63.77
15568;BME280;7885;42.596;23.044;2023-03-21T06:26:01;92733.00;;;11.37;63.23
15568;BME280;7885;42.596;23.044;2023-03-21T06:28:27;92732.44;;;11.53;62.99
15568;BME280;7885;42.596;23.044;2023-03-21T06:30:55;92722.63;;;11.62;62.72
15568;BME280;7885;42.596;23.044;2023-03-21T06:33:22;92724.41;;;11.80;62.98
15568;BME280;7885;42.596;23.044;2023-03-21T06:35:52;92725.31;;;12.03;61.79
15568;BME280;7885;42.596;23.044;2023-03-21T06:38:20;92722.34;;;12.21;61.32
15568;BME280;7885;42.596;23.044;2023-03-21T06:40:47;92728.69;;;12.45;60.03
15568;BME280;7885;42.596;23.044;2023-03-21T06:43:14;92725.03;;;12.55;59.39
15568;BME280;7885;42.596;23.044;2023-03-21T06:45:41;92742.72;;;12.74;59.67
15568;BME280;7885;42.596;23.044;2023-03-21T06:48:10;92736.06;;;13.01;59.68
15568;BME280;7885;42.596;23.044;2023-03-21T06:50:37;92731.03;;;13.27;59.17
15568;BME280;7885;42.596;23.044;2023-03-21T06:53:03;92722.88;;;13.46;58.27
15568;BME280;7885;42.596;23.044;2023-03-21T06:55:30;92727.59;;;13.65;57.71
15568;BME280;7885;42.596;23.044;2023-03-21T06:57:57;92730.28;;;13.69;56.79
15568;BME280;7885;42.596;23.044;2023-03-21T07:00:24;92734.78;;;13.79;57.23
15568;BME280;7885;42.596;23.044;2023-03-21T07:02:51;92729.25;;;13.83;57.42
15568;BME280;7885;42.596;23.044;2023-03-21T07:05:19;92717.97;;;13.81;57.55
15568;BME280;7885;42.596;23.044;2023-03-21T07:07:46;92690.75;;;13.74;57.69
15568;BME280;7885;42.596;23.044;2023-03-21T07:10:13;92726.81;;;14.08;57.01
15568;BME280;7885;42.596;23.044;2023-03-21T07:12:39;92730.84;;;14.23;56.63
15568;BME280;7885;42.596;23.044;2023-03-21T07:15:08;92733.66;;;14.39;56.53
15568;BME280;7885;42.596;23.044;2023-03-21T07:17:34;92737.28;;;14.52;55.08
15568;BME280;7885;42.596;23.044;2023-03-21T07:20:01;92705.56;;;14.35;54.56
15568;BME280;7885;42.596;23.044;2023-03-21T07:22:32;92737.84;;;14.63;53.63
15568;BME280;7885;42.596;23.044;2023-03-21T07:24:59;92739.38;;;14.64;53.53
15568;BME280;7885;42.596;23.044;2023-03-21T07:27:25;92743.31;;;14.63;54.36
15568;BME280;7885;42.596;23.044;2023-03-21T07:33:14;92736.78;;;14.38;53.50
15568;BME280;7885;42.596;23.044;2023-03-21T07:35:40;92726.06;;;14.27;53.77
15568;BME280;7885;42.596;23.044;2023-03-21T07:38:09;92746.00;;;14.47;53.80
15568;BME280;7885;42.596;23.044;2023-03-21T07:40:41;92727.19;;;14.49;53.47
15568;BME280;7885;42.596;23.044;2023-03-21T07:43:07;92750.19;;;14.72;52.89
15568;BME280;7885;42.596;23.044;2023-03-21T07:45:34;92739.09;;;14.79;51.23
15568;BME280;7885;42.596;23.044;2023-03-21T07:48:01;92743.03;;;14.94;50.09
15568;BME280;7885;42.596;23.044;2023-03-21T07:50:28;92690.78;;;14.69;50.34
15568;BME280;7885;42.596;23.044;2023-03-21T07:52:55;92747.19;;;15.18;50.98
15568;BME280;7885;42.596;23.044;2023-03-21T07:55:26;92681.31;;;15.05;49.99
15568;BME280;7885;42.596;23.044;2023-03-21T07:57:53;92720.31;;;15.61;49.04
15568;BME280;7885;42.596;23.044;2023-03-21T08:00:20;92744.16;;;15.93;48.73
15568;BME280;7885;42.596;23.044;2023-03-21T08:02:49;92735.69;;;15.88;48.71
15568;BME280;7885;42.596;23.044;2023-03-21T08:05:19;92741.47;;;15.77;48.53
15568;BME280;7885;42.596;23.044;2023-03-21T08:07:46;92716.19;;;15.53;48.75
15568;BME280;7885;42.596;23.044;2023-03-21T08:10:13;92735.69;;;15.88;48.63
15568;BME280;7885;42.596;23.044;2023-03-21T08:12:42;92682.41;;;15.56;48.16
15568;BME280;7885;42.596;23.044;2023-03-21T08:15:09;92740.44;;;16.16;47.53
15568;BME280;7885;42.596;23.044;2023-03-21T08:17:37;92733.00;;;16.29;47.37
15568;BME280;7885;42.596;23.044;2023-03-21T08:20:05;92731.75;;;16.17;47.43
15568;BME280;7885;42.596;23.044;2023-03-21T08:22:35;92728.97;;;16.05;48.59
15568;BME280;7885;42.596;23.044;2023-03-21T08:25:02;92722.66;;;15.76;48.57
15568;BME280;7885;42.596;23.044;2023-03-21T08:27:30;92691.34;;;15.44;48.93
15568;BME280;7885;42.596;23.044;2023-03-21T08:29:58;92731.09;;;15.52;49.27
15568;BME280;7885;42.596;23.044;2023-03-21T08:32:26;92732.63;;;15.37;49.30
15568;BME280;7885;42.596;23.044;2023-03-21T08:34:57;92729.38;;;15.42;49.73
15568;BME280;7885;42.596;23.044;2023-03-21T08:37:25;92744.44;;;15.34;50.03
15568;BME280;7885;42.596;23.044;2023-03-21T08:39:53;92720.47;;;15.22;49.87
15568;BME280;7885;42.596;23.044;2023-03-21T08:42:20;92735.53;;;15.30;50.64
15568;BME280;7885;42.596;23.044;2023-03-21T08:44:48;92735.88;;;15.32;50.66
15568;BME280;7885;42.596;23.044;2023-03-21T08:47:16;92737.06;;;15.31;50.50
15568;BME280;7885;42.596;23.044;2023-03-21T08:49:43;92722.00;;;15.23;50.20
15568;BME280;7885;42.596;23.044;2023-03-21T08:52:11;92724.06;;;15.35;51.02
15568;BME280;7885;42.596;23.044;2023-03-21T08:54:38;92712.22;;;15.22;50.21
15568;BME280;7885;42.596;23.044;2023-03-21T08:57:06;92718.75;;;15.44;50.25
15568;BME280;7885;42.596;23.044;2023-03-21T08:59:35;92698.28;;;15.49;50.31
15568;BME280;7885;42.596;23.044;2023-03-21T09:02:02;92710.34;;;15.68;48.81
15568;BME280;7885;42.596;23.044;2023-03-21T09:04:30;92657.31;;;15.58;48.49
15568;BME280;7885;42.596;23.044;2023-03-21T09:06:57;92711.03;;;16.29;47.52
15568;BME280;7885;42.596;23.044;2023-03-21T09:09:26;92710.38;;;16.66;46.26
15568;BME280;7885;42.596;23.044;2023-03-21T09:11:53;92689.16;;;16.80;45.78
15568;BME280;7885;42.596;23.044;2023-03-21T09:14:20;92696.09;;;16.97;45.19
15568;BME280;7885;42.596;23.044;2023-03-21T09:16:47;92675.56;;;16.89;45.21
15568;BME280;7885;42.596;23.044;2023-03-21T09:19:14;92654.47;;;16.86;44.87
15568;BME280;7885;42.596;23.044;2023-03-21T09:21:43;92685.34;;;17.02;45.47
15568;BME280;7885;42.596;23.044;2023-03-21T09:24:11;92652.03;;;16.88;44.93
15568;BME280;7885;42.596;23.044;2023-03-21T09:26:39;92676.63;;;17.04;44.41
15568;BME280;7885;42.596;23.044;2023-03-21T09:29:08;92693.59;;;17.15;44.30
15568;BME280;7885;42.596;23.044;2023-03-21T09:34:57;92680.19;;;16.92;45.10
15568;BME280;7885;42.596;23.044;2023-03-21T09:37:25;92669.41;;;16.85;45.74
15568;BME280;7885;42.596;23.044;2023-03-21T09:39:52;92679.63;;;16.97;44.55
15568;BME280;7885;42.596;23.044;2023-03-21T09:42:30;92679.50;;;17.13;45.35
15568;BME280;7885;42.596;23.044;2023-03-21T09:45:07;92677.91;;;17.62;43.92
15568;BME280;7885;42.596;23.044;2023-03-21T09:47:40;92597.69;;;18.38;41.50
15568;BME280;7885;42.596;23.044;2023-03-21T09:50:20;92659.06;;;20.35;38.15
15568;BME280;7885;42.596;23.044;2023-03-21T09:52:56;92638.13;;;21.21;36.17
15568;BME280;7885;42.596;23.044;2023-03-21T09:55:24;92646.22;;;22.29;34.49
15568;BME280;7885;42.596;23.044;2023-03-21T09:58:01;92603.91;;;22.57;30.40
15568;BME280;7885;42.596;23.044;2023-03-21T10:00:34;92639.59;;;22.94;29.37
15568;BME280;7885;42.596;23.044;2023-03-21T10:03:04;92588.09;;;22.20;29.52
15568;BME280;7885;42.596;23.044;2023-03-21T10:05:37;92644.66;;;22.13;29.35
15568;BME280;7885;42.596;23.044;2023-03-21T10:08:13;92627.69;;;21.73;28.75
15568;BME280;7885;42.596;23.044;2023-03-21T10:10:47;92604.22;;;21.35;29.42
15568;BME280;7885;42.596;23.044;2023-03-21T10:13:16;92636.53;;;21.86;29.36
15568;BME280;7885;42.596;23.044;2023-03-21T10:15:45;92613.00;;;21.34;30.04
15568;BME280;7885;42.596;23.044;2023-03-21T10:18:17;92665.03;;;21.53;29.70
15568;BME280;7885;42.596;23.044;2023-03-21T10:20:48;92656.56;;;21.81;28.86
15568;BME280;7885;42.596;23.044;2023-03-21T10:23:19;92650.34;;;21.95;29.41
15568;BME280;7885;42.596;23.044;2023-03-21T10:25:48;92656.31;;;22.17;29.29
15568;BME280;7885;42.596;23.044;2023-03-21T10:28:17;92604.94;;;21.68;28.98
15568;BME280;7885;42.596;23.044;2023-03-21T10:30:48;92654.13;;;22.21;28.86
15568;BME280;7885;42.596;23.044;2023-03-21T10:33:17;92647.00;;;22.29;29.46
15568;BME280;7885;42.596;23.044;2023-03-21T10:35:51;92602.34;;;21.89;28.33
15568;BME280;7885;42.596;23.044;2023-03-21T10:38:22;92630.34;;;22.29;28.07
15568;BME280;7885;42.596;23.044;2023-03-21T10:40:49;92585.41;;;22.25;27.67
15568;BME280;7885;42.596;23.044;2023-03-21T10:43:33;92638.47;;;22.86;27.96
15568;BME280;7885;42.596;23.044;2023-03-21T10:46:07;92577.50;;;22.77;27.34
15568;BME280;7885;42.596;23.044;2023-03-21T10:48:36;92626.06;;;23.65;26.49
15568;BME280;7885;42.596;23.044;2023-03-21T10:51:06;92619.41;;;23.57;25.80
15568;BME280;7885;42.596;23.044;2023-03-21T10:53:38;92636.69;;;23.47;26.25
15568;BME280;7885;42.596;23.044;2023-03-21T10:56:07;92612.34;;;23.42;26.12
15568;BME280;7885;42.596;23.044;2023-03-21T10:58:38;92567.19;;;23.61;25.89
15568;BME280;7885;42.596;23.044;2023-03-21T11:01:10;92551.22;;;24.48;24.35
15568;BME280;7885;42.596;23.044;2023-03-21T11:03:44;92611.16;;;25.27;24.17
15568;BME280;7885;42.596;23.044;2023-03-21T11:06:15;92629.06;;;24.89;24.04
15568;BME280;7885;42.596;23.044;2023-03-21T11:08:46;92601.97;;;24.63;24.36
15568;BME280;7885;42.596;23.044;2023-03-21T11:11:23;92609.28;;;24.87;24.50
15568;BME280;7885;42.596;23.044;2023-03-21T11:13:57;92597.56;;;25.03;23.99
15568;BME280;7885;42.596;23.044;2023-03-21T11:16:29;92531.41;;;24.67;23.78
15568;BME280;7885;42.596;23.044;2023-03-21T11:19:00;92538.44;;;24.62;23.61
15568;BME280;7885;42.596;23.044;2023-03-21T11:21:34;92554.03;;;24.80;23.92
15568;BME280;7885;42.596;23.044;2023-03-21T11:24:04;92593.34;;;25.19;24.14
15568;BME280;7885;42.596;23.044;2023-03-21T11:26:34;92596.72;;;24.97;24.14
15568;BME280;7885;42.596;23.044;2023-03-21T11:29:10;92543.06;;;24.39;23.92
15568;BME280;7885;42.596;23.044;2023-03-21T11:31:40;92590.50;;;23.90;24.24
15568;BME280;7885;42.596;23.044;2023-03-21T11:34:08;92547.22;;;23.08;25.50
15568;BME280;7885;42.596;23.044;2023-03-21T11:36:36;92579.31;;;22.94;26.40
15568;BME280;7885;42.596;23.044;2023-03-21T11:39:30;92575.28;;;22.51;27.24
15568;BME280;7885;42.596;23.044;2023-03-21T11:41:57;92575.88;;;22.41;27.48
15568;BME280;7885;42.596;23.044;2023-03-21T11:44:27;92546.22;;;22.03;28.08
15568;BME280;7885;42.596;23.044;2023-03-21T11:46:54;92574.78;;;22.09;27.78
15568;BME280;7885;42.596;23.044;2023-03-21T11:49:21;92515.44;;;21.62;28.32
15568;BME280;7885;42.596;23.044;2023-03-21T11:51:56;92561.66;;;21.95;28.28
15568;BME280;7885;42.596;23.044;2023-03-21T11:54:32;92568.69;;;21.81;28.86
15568;BME280;7885;42.596;23.044;2023-03-21T11:57:07;92563.75;;;21.61;28.11
15568;BME280;7885;42.596;23.044;2023-03-21T11:59:44;92521.16;;;21.35;29.16
15568;BME280;7885;42.596;23.044;2023-03-21T12:02:34;92548.16;;;21.49;29.07
15568;BME280;7885;42.596;23.044;2023-03-21T12:05:04;92493.44;;;21.21;29.16
15568;BME280;7885;42.596;23.044;2023-03-21T12:07:46;92551.19;;;21.51;29.24
15568;BME280;7885;42.596;23.044;2023-03-21T12:10:30;92540.59;;;21.50;29.03
15568;BME280;7885;42.596;23.044;2023-03-21T12:13:09;92488.78;;;21.03;29.38
15568;BME280;7885;42.596;23.044;2023-03-21T12:15:42;92533.19;;;21.32;29.64
15568;BME280;7885;42.596;23.044;2023-03-21T12:18:26;92516.44;;;21.03;29.83
15568;BME280;7885;42.596;23.044;2023-03-21T12:20:59;92461.63;;;20.27;30.37
15568;BME280;7885;42.596;23.044;2023-03-21T12:23:48;92539.00;;;20.78;30.72
15568;BME280;7885;42.596;23.044;2023-03-21T12:26:24;92533.75;;;20.80;30.33
15568;BME280;7885;42.596;23.044;2023-03-21T12:29:06;92514.72;;;20.82;31.22
15568;BME280;7885;42.596;23.044;2023-03-21T12:31:44;92434.03;;;20.17;30.73
15568;BME280;7885;42.596;23.044;2023-03-21T12:34:22;92476.31;;;20.51;30.36
15568;BME280;7885;42.596;23.044;2023-03-21T12:37:04;92541.13;;;20.83;29.86
15568;BME280;7885;42.596;23.044;2023-03-21T12:39:38;92528.88;;;20.75;30.81
15568;BME280;7885;42.596;23.044;2023-03-21T12:42:39;92536.84;;;20.82;31.40
15568;BME280;7885;42.596;23.044;2023-03-21T12:45:14;92520.28;;;20.73;31.31
15568;BME280;7885;42.596;23.044;2023-03-21T12:47:46;92528.28;;;20.71;31.25
15568;BME280;7885;42.596;23.044;2023-03-21T12:50:19;92491.84;;;20.39;31.39
15568;BME280;7885;42.596;23.044;2023-03-21T12:52:51;92514.41;;;20.47;31.80
15568;BME280;7885;42.596;23.044;2023-03-21T12:55:20;92516.31;;;20.23;31.46
15568;BME280;7885;42.596;23.044;2023-03-21T12:57:53;92502.53;;;20.04;32.10
15568;BME280;7885;42.596;23.044;2023-03-21T13:00:24;92438.97;;;19.53;32.19
15568;BME280;7885;42.596;23.044;2023-03-21T13:02:55;92506.69;;;19.91;32.27
15568;BME280;7885;42.596;23.044;2023-03-21T13:05:28;92485.88;;;19.62;32.23
15568;BME280;7885;42.596;23.044;2023-03-21T13:07:58;92507.94;;;19.81;32.58
15568;BME280;7885;42.596;23.044;2023-03-21T13:10:27;92504.88;;;19.79;32.87
15568;BME280;7885;42.596;23.044;2023-03-21T13:16:20;92465.34;;;19.45;33.20
15568;BME280;7885;42.596;23.044;2023-03-21T13:18:57;92497.53;;;19.66;33.55
15568;BME280;7885;42.596;23.044;2023-03-21T13:21:40;92494.16;;;19.53;33.37
15568;BME280;7885;42.596;23.044;2023-03-21T13:24:27;92494.91;;;19.45;34.12
15568;BME280;7885;42.596;23.044;2023-03-21T13:27:01;92490.78;;;19.40;34.06
15568;BME280;7885;42.596;23.044;2023-03-21T13:29:32;92478.03;;;19.25;34.16
15568;BME280;7885;42.596;23.044;2023-03-21T13:32:09;92459.50;;;19.16;34.00
15568;BME280;7885;42.596;23.044;2023-03-21T13:34:40;92486.34;;;19.34;34.03